Time;durP1;ratioP1;P1;durP2;ratioP2;P2;SDS_P1;SDS_P2;PMS_P1;PMS_P2;Temp;Humidity;BMP_temperature;BMP_pressure;BME280_temperature;BME280_humidity;BME280_pressure;Samples;Min_cycle;Max_cycle;Signal;HPM_P1;HPM_P2
2020/12/05 00:00:00;;;;;;;8.55;2.88;;;20.30;85.70;;;;;;6308412;22;20011;-81
2020/12/05 00:02:27;;;;;;;9.63;3.17;;;20.20;85.70;;;;;;6280347;22;20500;-80
2020/12/05 00:04:54;;;;;;;10.57;3.22;;;20.20;85.90;;;;;;6306257;22;20019;-81
2020/12/05 00:07:21;;;;;;;19.97;3.27;;;20.20;86.10;;;;;;6281189;22;20015;-81
2020/12/05 00:09:48;;;;;;;12.57;3.30;;;20.10;86.20;;;;;;6308451;22;20042;-80
2020/12/05 00:12:18;;;;;;;5.80;2.90;;;20.10;86.30;;;;;;6305297;22;20023;-80
2020/12/05 00:14:54;;;;;;;9.63;3.00;;;20.10;86.40;;;;;;6308291;22;20662;-80
2020/12/05 00:17:21;;;;;;;13.38;3.42;;;20.10;86.60;;;;;;6308632;22;20019;-80
2020/12/05 00:19:48;;;;;;;10.57;3.17;;;20.00;86.70;;;;;;6308041;22;20418;-80
2020/12/05 00:22:17;;;;;;;11.02;3.67;;;20.00;86.80;;;;;;6320428;22;20014;-79
2020/12/05 00:24:45;;;;;;;8.32;3.05;;;19.90;86.90;;;;;;6319408;22;20026;-79
2020/12/05 00:27:13;;;;;;;9.50;3.10;;;19.90;87.00;;;;;;6306199;22;20022;-80
2020/12/05 00:29:40;;;;;;;7.03;2.70;;;19.90;87.10;;;;;;6306536;22;20011;-80
2020/12/05 00:32:07;;;;;;;8.60;3.58;;;19.90;87.20;;;;;;6330531;22;20154;-79
2020/12/05 00:34:34;;;;;;;12.15;3.58;;;19.90;87.30;;;;;;6330192;22;20011;-81
2020/12/05 00:37:03;;;;;;;10.32;3.75;;;19.90;87.40;;;;;;6308337;22;20022;-81
2020/12/05 00:39:30;;;;;;;9.13;3.38;;;19.80;87.50;;;;;;6308709;22;20323;-81
2020/12/05 00:41:57;;;;;;;7.25;3.03;;;19.80;87.70;;;;;;6306680;22;20015;-80
2020/12/05 00:44:24;;;;;;;8.88;3.10;;;19.80;87.70;;;;;;6305339;22;20019;-80
2020/12/05 00:46:51;;;;;;;9.90;3.33;;;19.70;87.80;;;;;;6307599;22;20015;-80
2020/12/05 00:49:18;;;;;;;9.57;3.28;;;19.70;87.80;;;;;;6311523;22;20019;-78
2020/12/05 00:51:49;;;;;;;12.07;3.50;;;19.70;88.00;;;;;;6312216;22;20019;-80
2020/12/05 00:54:16;;;;;;;11.45;3.10;;;19.70;88.00;;;;;;6281531;22;20476;-80
2020/12/05 00:56:45;;;;;;;9.77;3.28;;;19.70;88.00;;;;;;6283401;22;20649;-81
2020/12/05 00:59:12;;;;;;;9.07;3.10;;;19.70;88.20;;;;;;6307788;22;20026;-80
2020/12/05 01:01:39;;;;;;;10.93;3.28;;;19.70;88.10;;;;;;6307259;22;20018;-80
2020/12/05 01:04:06;;;;;;;9.23;2.95;;;19.70;88.00;;;;;;6306837;22;20015;-80
2020/12/05 01:06:33;;;;;;;7.90;3.17;;;19.80;87.90;;;;;;6306780;22;20217;-80
2020/12/05 01:09:00;;;;;;;7.78;3.10;;;19.80;87.70;;;;;;6305663;22;20428;-80
2020/12/05 01:11:27;;;;;;;10.07;3.33;;;19.80;87.60;;;;;;6307886;22;20015;-80
2020/12/05 01:13:53;;;;;;;9.65;3.03;;;19.80;87.50;;;;;;6304584;22;20025;-80
2020/12/05 01:16:20;;;;;;;8.18;2.80;;;19.80;87.50;;;;;;6308139;22;20011;-80
2020/12/05 01:18:47;;;;;;;7.50;2.73;;;19.90;87.40;;;;;;6314913;22;20015;-81
2020/12/05 01:21:15;;;;;;;8.52;3.05;;;19.90;87.40;;;;;;6313288;22;20022;-79
2020/12/05 01:23:42;;;;;;;8.70;3.90;;;19.90;87.30;;;;;;6313990;22;20109;-79
2020/12/05 01:26:12;;;;;;;8.60;3.15;;;19.90;87.20;;;;;;6317798;22;20015;-80
2020/12/05 01:28:44;;;;;;;10.15;3.13;;;19.90;87.20;;;;;;6329155;22;20062;-81
2020/12/05 01:31:15;;;;;;;10.35;3.38;;;19.90;87.20;;;;;;6315990;22;20019;-79
2020/12/05 01:33:42;;;;;;;9.38;2.72;;;19.90;87.20;;;;;;6314355;22;20015;-79
2020/12/05 01:36:09;;;;;;;7.15;2.70;;;19.90;87.20;;;;;;6309926;22;20106;-80
2020/12/05 01:38:36;;;;;;;8.70;3.10;;;19.90;87.20;;;;;;6310029;22;20016;-80
2020/12/05 01:41:06;;;;;;;9.20;3.38;;;19.90;87.20;;;;;;6306653;22;20027;-81
2020/12/05 01:43:35;;;;;;;8.23;3.17;;;19.90;87.20;;;;;;6308946;22;20030;-81
2020/12/05 01:46:04;;;;;;;8.63;3.33;;;19.90;87.30;;;;;;6305514;22;20014;-80
2020/12/05 01:48:32;;;;;;;5.38;2.42;;;19.90;87.30;;;;;;6304543;22;20250;-80
2020/12/05 01:50:59;;;;;;;10.98;3.50;;;19.90;87.30;;;;;;6316842;22;20014;-79
2020/12/05 01:53:26;;;;;;;9.40;3.67;;;19.80;87.20;;;;;;6322289;22;20015;-79
2020/12/05 01:55:56;;;;;;;7.75;3.20;;;19.80;87.30;;;;;;6320043;22;20020;-79
2020/12/05 01:58:23;;;;;;;9.65;3.38;;;19.80;87.40;;;;;;6315472;22;20033;-80
2020/12/05 02:00:50;;;;;;;8.67;3.70;;;19.80;87.30;;;;;;6287582;22;20468;-80
2020/12/05 02:03:18;;;;;;;10.63;3.17;;;19.80;87.40;;;;;;6285699;22;20019;-80
2020/12/05 02:06:06;;;;;;;7.80;3.20;;;19.80;87.40;;;;;;6308082;22;20031;-80
2020/12/05 02:08:45;;;;;;;8.40;3.40;;;19.80;87.40;;;;;;6319088;22;20501;-81
2020/12/05 02:11:17;;;;;;;8.30;2.92;;;19.80;87.40;;;;;;6317799;22;20015;-79
2020/12/05 02:13:46;;;;;;;6.50;2.90;;;19.80;87.50;;;;;;6314903;22;20053;-80
2020/12/05 02:16:15;;;;;;;6.63;2.97;;;19.70;87.60;;;;;;6308524;22;20034;-80
2020/12/05 02:18:46;;;;;;;8.50;3.25;;;19.70;87.60;;;;;;6310180;22;20041;-80
2020/12/05 02:21:15;;;;;;;10.25;3.63;;;19.70;87.70;;;;;;6305851;22;20023;-80
2020/12/05 02:23:46;;;;;;;9.75;3.55;;;19.60;87.90;;;;;;6307883;22;20027;-79
2020/12/05 02:26:15;;;;;;;10.10;3.28;;;19.60;87.90;;;;;;6316549;22;20015;-80
2020/12/05 02:28:41;;;;;;;11.77;3.67;;;19.50;88.10;;;;;;6308233;22;20011;-80
2020/12/05 02:31:10;;;;;;;10.60;3.30;;;19.50;88.20;;;;;;6307870;22;20067;-80
2020/12/05 02:33:37;;;;;;;8.73;3.60;;;19.50;88.30;;;;;;6307996;22;20019;-80
2020/12/05 02:36:05;;;;;;;11.10;2.92;;;19.50;88.40;;;;;;6305899;22;20493;-80
2020/12/05 02:38:49;;;;;;;7.90;2.75;;;19.50;88.40;;;;;;6306294;22;20023;-80
2020/12/05 02:41:16;;;;;;;10.10;3.30;;;19.50;88.40;;;;;;6316915;22;20469;-80
2020/12/05 02:43:43;;;;;;;8.77;3.13;;;19.60;88.40;;;;;;6308668;22;20015;-80
2020/12/05 02:46:11;;;;;;;10.80;3.80;;;19.50;88.20;;;;;;6305033;22;20608;-79
2020/12/05 02:48:38;;;;;;;10.55;3.45;;;19.50;88.00;;;;;;6305578;22;20031;-80
2020/12/05 02:51:05;;;;;;;7.20;2.92;;;19.60;88.00;;;;;;6305911;22;20450;-81
2020/12/05 02:53:31;;;;;;;10.20;3.17;;;19.60;87.90;;;;;;6308968;22;20007;-81
2020/12/05 02:55:58;;;;;;;7.22;2.75;;;19.60;87.80;;;;;;6281456;22;20015;-79
2020/12/05 02:58:25;;;;;;;7.70;2.83;;;19.70;87.80;;;;;;6280778;22;20011;-80
2020/12/05 03:00:52;;;;;;;7.60;3.00;;;19.60;87.70;;;;;;6306574;22;20851;-80
2020/12/05 03:03:19;;;;;;;8.27;3.00;;;19.70;87.60;;;;;;6308670;22;20011;-82
2020/12/05 03:05:46;;;;;;;11.77;3.58;;;19.70;87.60;;;;;;6316134;22;20003;-78
2020/12/05 03:08:13;;;;;;;12.00;3.40;;;19.60;87.50;;;;;;6323904;22;20015;-79
2020/12/05 03:10:40;;;;;;;13.57;3.80;;;19.60;87.50;;;;;;6318524;22;20037;-79
2020/12/05 03:13:07;;;;;;;8.38;3.28;;;19.60;87.50;;;;;;6317910;22;20025;-80
2020/12/05 03:15:33;;;;;;;8.65;2.95;;;19.50;87.60;;;;;;6314665;22;20033;-80
2020/12/05 03:18:00;;;;;;;8.40;3.40;;;19.50;87.70;;;;;;6283166;22;20346;-80
2020/12/05 03:20:27;;;;;;;9.57;3.30;;;19.50;87.90;;;;;;6310875;22;20019;-82
2020/12/05 03:22:54;;;;;;;10.95;4.10;;;19.50;88.00;;;;;;6310900;22;20018;-82
2020/12/05 03:25:22;;;;;;;6.32;2.88;;;19.40;88.10;;;;;;6311075;22;20015;-80
2020/12/05 03:27:51;;;;;;;12.75;3.67;;;19.40;88.20;;;;;;6309674;22;20015;-80
2020/12/05 03:30:18;;;;;;;9.15;3.20;;;19.40;88.40;;;;;;6310973;22;20019;-79
2020/12/05 03:32:45;;;;;;;9.17;3.37;;;19.30;88.40;;;;;;6317233;22;20029;-79
2020/12/05 03:35:12;;;;;;;10.82;3.47;;;19.30;88.60;;;;;;6310464;22;20029;-80
2020/12/05 03:37:39;;;;;;;11.13;3.80;;;19.30;88.60;;;;;;6323129;22;20006;-79
2020/12/05 03:40:06;;;;;;;8.70;2.88;;;19.30;88.80;;;;;;6332209;22;20090;-79
2020/12/05 03:42:33;;;;;;;9.63;3.00;;;19.30;88.80;;;;;;6332254;22;20014;-78
2020/12/05 03:45:00;;;;;;;8.30;3.25;;;19.20;88.90;;;;;;6333794;22;19999;-79
2020/12/05 03:47:27;;;;;;;9.85;3.40;;;19.20;88.90;;;;;;6335345;22;20054;-78
2020/12/05 03:49:54;;;;;;;11.13;3.28;;;19.20;89.00;;;;;;6333738;22;20066;-79
2020/12/05 03:52:21;;;;;;;8.97;3.13;;;19.20;89.10;;;;;;6332869;22;20063;-78
2020/12/05 03:54:48;;;;;;;7.65;3.10;;;19.20;89.10;;;;;;6333710;22;20055;-79
2020/12/05 03:57:15;;;;;;;8.52;3.53;;;19.10;89.10;;;;;;6335413;22;20051;-79
2020/12/05 03:59:42;;;;;;;10.20;3.47;;;19.10;89.20;;;;;;6333069;22;20067;-79
2020/12/05 04:02:09;;;;;;;7.57;2.77;;;19.10;89.20;;;;;;6332252;22;20405;-79
2020/12/05 04:04:36;;;;;;;10.85;3.28;;;19.10;89.30;;;;;;6312702;22;20022;-78
2020/12/05 04:07:02;;;;;;;11.43;3.58;;;19.10;89.30;;;;;;6303458;22;20011;-79
2020/12/05 04:09:29;;;;;;;7.97;3.30;;;19.10;89.40;;;;;;6305405;22;20458;-80
2020/12/05 04:11:56;;;;;;;9.63;3.27;;;19.10;89.30;;;;;;6307452;22;20011;-80
2020/12/05 04:14:23;;;;;;;11.02;3.85;;;19.20;89.30;;;;;;6304613;22;20026;-80
2020/12/05 04:16:50;;;;;;;9.47;3.30;;;19.20;89.10;;;;;;6304869;22;20018;-80
2020/12/05 04:19:17;;;;;;;8.43;2.83;;;19.30;89.00;;;;;;6311208;22;20015;-78
2020/12/05 04:21:44;;;;;;;9.03;3.57;;;19.30;88.80;;;;;;6318347;22;20027;-79
2020/12/05 04:24:11;;;;;;;9.13;3.30;;;19.40;88.70;;;;;;6319394;22;20015;-78
2020/12/05 04:26:38;;;;;;;9.02;3.40;;;19.40;88.40;;;;;;6316776;22;20015;-79
2020/12/05 04:29:05;;;;;;;8.13;3.03;;;19.40;88.20;;;;;;6318011;22;20025;-79
2020/12/05 04:31:31;;;;;;;7.63;3.43;;;19.50;88.00;;;;;;6316061;22;20029;-80
2020/12/05 04:33:58;;;;;;;9.30;3.38;;;19.50;87.90;;;;;;6310036;22;20019;-79
2020/12/05 04:36:25;;;;;;;8.18;3.17;;;19.50;87.70;;;;;;6308171;22;20033;-79
2020/12/05 04:38:52;;;;;;;5.40;2.73;;;19.50;87.50;;;;;;6307589;22;20011;-80
2020/12/05 04:41:19;;;;;;;8.88;3.42;;;19.60;87.50;;;;;;6307812;22;20019;-78
2020/12/05 04:43:47;;;;;;;7.03;3.10;;;19.60;87.40;;;;;;6320155;22;20018;-79
2020/12/05 04:46:17;;;;;;;7.40;2.53;;;19.60;87.20;;;;;;6318416;22;20015;-80
2020/12/05 04:48:44;;;;;;;11.20;3.85;;;19.60;87.10;;;;;;6312428;22;20355;-79
2020/12/05 04:51:17;;;;;;;9.30;3.30;;;19.60;87.20;;;;;;6310893;22;20023;-79
2020/12/05 04:53:47;;;;;;;10.23;3.42;;;19.50;87.10;;;;;;6318238;22;20011;-80
2020/12/05 04:56:15;;;;;;;8.50;2.97;;;19.50;87.20;;;;;;6310898;22;20351;-80
2020/12/05 04:58:46;;;;;;;;;;;19.40;87.40;;;;;;6310959;22;20021;-80
2020/12/05 05:01:17;;;;;;;11.82;3.50;;;19.50;88.30;;;;;;6310976;22;19919;-79
2020/12/05 05:03:54;;;;;;;8.73;3.25;;;19.60;87.40;;;;;;6315302;22;20020;-80
2020/12/05 05:20:23;;;;;;;8.68;3.00;;;20.00;85.70;;;;;;6277287;22;20030;-80
2020/12/05 05:26:38;;;;;;;8.18;3.45;;;20.20;84.80;;;;;;6305345;22;20022;-81
2020/12/05 05:29:25;;;;;;;13.07;3.47;;;20.20;84.50;;;;;;6308577;22;20046;-82
2020/12/05 05:32:23;;;;;;;11.25;3.25;;;20.20;84.30;;;;;;6267498;22;20023;-83
2020/12/05 05:35:19;;;;;;;10.27;3.65;;;20.20;84.30;;;;;;6308146;22;20021;-85
2020/12/05 05:38:25;;;;;;;9.40;3.30;;;20.10;84.70;;;;;;6288065;22;20349;-82
2020/12/05 05:41:15;;;;;;;11.13;3.55;;;20.10;85.10;;;;;;6281390;22;20019;-83
2020/12/05 05:43:57;;;;;;;11.07;3.28;;;20.20;85.30;;;;;;6307390;22;20016;-82
2020/12/05 05:46:44;;;;;;;8.25;3.00;;;20.30;85.30;;;;;;6286590;22;20023;-83
2020/12/05 05:49:34;;;;;;;8.98;3.33;;;20.30;85.20;;;;;;6263289;22;20351;-82
2020/12/05 05:52:58;;;;;;;9.52;3.15;;;20.30;85.30;;;;;;6285781;22;20020;-82
2020/12/05 05:56:25;;;;;;;9.90;3.40;;;20.40;85.30;;;;;;6266419;22;20030;-83
2020/12/05 05:59:29;;;;;;;9.05;3.70;;;20.30;85.80;;;;;;6234494;22;20026;-84
2020/12/05 06:02:29;;;;;;;10.65;3.47;;;20.40;86.00;;;;;;6233859;22;20014;-86
2020/12/05 06:05:27;;;;;;;7.68;2.78;;;20.40;86.00;;;;;;6230725;22;20020;-83
2020/12/05 06:08:29;;;;;;;10.85;3.50;;;20.50;85.90;;;;;;6261955;22;20020;-83
2020/12/05 06:11:14;;;;;;;9.80;3.28;;;20.60;85.70;;;;;;6231543;22;20120;-84
2020/12/05 06:14:21;;;;;;;9.70;3.33;;;20.60;85.50;;;;;;6128404;23;20018;-82
2020/12/05 06:21:16;;;;;;;7.68;2.95;;;20.70;85.30;;;;;;6077105;23;20037;-83
2020/12/05 06:24:22;;;;;;;9.10;3.25;;;20.80;85.30;;;;;;5942189;24;20356;-84
2020/12/05 06:32:10;;;;;;;11.80;3.15;;;21.00;84.90;;;;;;6021982;23;20551;-85
2020/12/05 06:35:31;;;;;;;;;;;;;;;;;;;;;
2020/12/05 06:39:08;;;;;;;21.77;4.90;;;21.00;85.00;;;;;;6072312;23;19929;-85
2020/12/05 06:42:19;;;;;;;14.15;4.63;;;21.50;85.20;;;;;;6064545;23;20366;-87
2020/12/05 06:45:08;;;;;;;;;;;;;;;;;;;;;
2020/12/05 06:48:13;;;;;;;30.42;7.65;;;22.40;83.10;;;;;;6172702;23;20025;-85
2020/12/05 06:51:28;;;;;;;21.25;5.93;;;22.60;84.40;;;;;;6147184;23;20021;-83
2020/12/05 06:55:07;;;;;;;25.13;6.65;;;22.80;84.00;;;;;;6139707;23;20016;-84
2020/12/05 07:02:42;;;;;;;;;;;;;;;;;;;;;
2020/12/05 07:26:51;;;;;;;23.83;7.68;;;21.80;76.30;;;;;;6199932;22;20020;-82
2020/12/05 08:26:40;;;;;;;18.52;6.47;;;22.20;85.20;;;;;;5902390;24;20066;-86
2020/12/05 10:32:01;;;;;;;44.25;8.90;;;21.80;83.70;;;;;;6228629;23;20010;-82
2020/12/05 11:06:38;;;;;;;;;;;;;;;;;;;;;
2020/12/05 11:14:27;;;;;;;39.60;9.38;;;22.80;80.50;;;;;;6328966;22;20013;-86
2020/12/05 11:17:11;;;;;;;34.40;9.13;;;22.70;80.80;;;;;;6293400;22;20033;-86
2020/12/05 11:19:45;;;;;;;39.10;9.07;;;22.70;80.90;;;;;;6268182;22;20019;-86
2020/12/05 11:22:33;;;;;;;40.63;9.23;;;22.60;81.20;;;;;;6294141;22;20015;-86
2020/12/05 11:25:05;;;;;;;31.83;9.27;;;22.50;81.60;;;;;;6292363;22;20021;-84
2020/12/05 11:27:36;;;;;;;31.88;9.90;;;22.40;81.90;;;;;;6291054;22;20019;-83
2020/12/05 11:30:22;;;;;;;30.83;8.32;;;22.40;82.30;;;;;;6289281;22;20016;-85
2020/12/05 11:33:03;;;;;;;30.25;9.52;;;22.30;82.60;;;;;;6291392;22;20358;-86
2020/12/05 11:35:40;;;;;;;34.63;9.95;;;22.30;82.90;;;;;;6266518;22;20312;-87
2020/12/05 11:38:16;;;;;;;32.40;10.00;;;22.20;83.10;;;;;;6266613;22;20027;-86
2020/12/05 11:40:59;;;;;;;30.95;7.93;;;22.20;83.30;;;;;;6267266;22;20073;-86
2020/12/05 11:43:53;;;;;;;34.67;9.57;;;22.20;83.50;;;;;;6275019;22;20015;-84
2020/12/05 11:47:29;;;;;;;44.08;11.98;;;22.20;83.60;;;;;;6267046;22;20455;-86
2020/12/05 11:51:04;;;;;;;;;;;;;;;;;;;;;
2020/12/05 11:53:33;;;;;;;27.48;9.15;;;22.10;84.10;;;;;;6318306;22;20015;-81
2020/12/05 11:56:04;;;;;;;39.63;10.02;;;22.10;84.40;;;;;;6288689;22;20018;-82
2020/12/05 12:02:39;;;;;;;58.22;11.40;;;22.00;84.70;;;;;;6286849;22;20038;-86
2020/12/05 14:07:08;;;;;;;22.02;6.72;;;22.20;82.40;;;;;;6303454;22;20021;-85
2020/12/05 14:09:43;;;;;;;25.90;8.00;;;22.30;81.20;;;;;;6267050;22;20026;-85
2020/12/05 14:12:46;;;;;;;27.63;7.63;;;22.40;81.30;;;;;;6229406;22;20012;-86
2020/12/05 14:15:25;;;;;;;24.05;8.80;;;22.50;81.00;;;;;;6230795;23;20020;-82
2020/12/05 14:38:18;;;;;;;25.65;6.85;;;22.30;82.40;;;;;;6220143;22;20452;-81
2020/12/05 15:06:17;;;;;;;17.65;5.10;;;22.80;81.40;;;;;;6203766;23;20018;-84
2020/12/05 15:09:34;;;;;;;14.88;5.00;;;22.70;77.70;;;;;;6200822;23;20032;-82
2020/12/05 15:22:04;;;;;;;;;;;;;;;;;;;;;
2020/12/05 15:29:37;;;;;;;12.88;3.88;;;22.00;77.70;;;;;;6054730;23;20022;-83
2020/12/05 15:33:25;;;;;;;14.15;3.95;;;22.00;78.30;;;;;;6032964;23;20517;-82
2020/12/05 15:37:12;;;;;;;;;;;;;;;;;;;;;
2020/12/05 15:39:59;;;;;;;16.20;4.13;;;22.10;79.90;;;;;;5975073;23;20349;-82
2020/12/05 15:42:40;;;;;;;12.82;3.75;;;22.10;80.70;;;;;;6022921;23;20028;-82
2020/12/05 15:45:08;;;;;;;17.20;4.07;;;22.10;81.50;;;;;;5990742;24;20035;-80
2020/12/05 15:47:36;;;;;;;;;;;22.10;82.20;;;;;;6012818;23;20024;-83
2020/12/05 15:50:06;;;;;;;11.20;3.72;;;22.00;82.50;;;;;;6051945;23;19918;-83
2020/12/05 15:52:37;;;;;;;11.40;3.65;;;22.00;83.00;;;;;;6027294;23;20019;-83
2020/12/05 15:55:18;;;;;;;12.95;3.58;;;22.00;83.40;;;;;;6079583;23;20007;-86
2020/12/05 15:57:45;;;;;;;8.43;3.22;;;22.00;83.80;;;;;;6055464;23;20034;-81
2020/12/05 16:00:15;;;;;;;11.80;3.67;;;22.00;84.20;;;;;;6074109;23;20527;-81
2020/12/05 16:02:49;;;;;;;11.98;3.60;;;22.00;84.90;;;;;;6044020;23;20023;-82
2020/12/05 16:05:16;;;;;;;15.90;3.80;;;21.90;85.70;;;;;;6079115;23;20033;-83
2020/12/05 16:07:56;;;;;;;10.80;4.45;;;21.90;86.40;;;;;;6101532;23;20026;-84
2020/12/05 16:10:32;;;;;;;10.32;3.40;;;21.90;87.20;;;;;;6179357;23;20020;-84
2020/12/05 16:12:59;;;;;;;13.13;3.72;;;21.80;87.70;;;;;;6227488;23;20020;-83
2020/12/05 16:15:30;;;;;;;18.48;3.42;;;21.80;88.50;;;;;;6234528;23;20020;-82
2020/12/05 16:18:10;;;;;;;14.02;4.03;;;21.80;89.10;;;;;;6272509;22;20048;-82
2020/12/05 16:20:37;;;;;;;16.50;3.60;;;21.80;89.40;;;;;;6256747;22;20052;-84
2020/12/05 16:23:12;;;;;;;13.02;3.72;;;21.80;90.00;;;;;;6246003;22;20071;-84
2020/12/05 16:25:40;;;;;;;14.15;3.70;;;21.80;90.10;;;;;;6246283;23;20026;-83
2020/12/05 16:28:07;;;;;;;10.68;3.42;;;21.70;90.40;;;;;;6271031;22;19996;-84
2020/12/05 16:30:44;;;;;;;16.35;3.70;;;21.80;90.40;;;;;;6221385;22;20087;-84
2020/12/05 16:33:21;;;;;;;;;;;;;;;;;;;;;
2020/12/05 16:35:54;;;;;;;17.58;3.40;;;21.80;90.70;;;;;;6245196;23;20067;-84
2020/12/05 16:38:56;;;;;;;15.48;4.13;;;21.90;91.30;;;;;;6222215;23;20056;-83
2020/12/05 16:41:26;;;;;;;23.02;3.72;;;22.00;91.10;;;;;;6243107;23;20059;-82
2020/12/05 16:44:30;;;;;;;23.60;6.00;;;22.00;91.20;;;;;;6240366;23;20020;-81
2020/12/05 16:48:15;;;;;;;19.52;4.90;;;22.00;92.60;;;;;;6245208;22;20067;-85
2020/12/05 16:50:43;;;;;;;42.17;10.55;;;22.10;93.10;;;;;;6241588;23;20020;-81
2020/12/05 16:59:28;;;;;;;57.88;12.48;;;22.40;99.90;;;;;;6283504;22;20016;-83
2020/12/05 17:01:56;;;;;;;47.08;10.85;;;22.60;99.90;;;;;;6319594;22;20021;-83
2020/12/05 17:04:27;;;;;;;36.40;8.57;;;22.70;99.90;;;;;;6287923;22;20022;-82
2020/12/05 17:10:24;;;;;;;;;;;22.70;99.90;;;;;;6296002;22;20014;-83
2020/12/05 17:16:32;;;;;;;20.50;5.55;;;21.20;98.20;;;;;;6322514;22;20018;-81
2020/12/05 17:19:15;;;;;;;16.15;4.22;;;20.60;97.30;;;;;;6288116;22;20026;-84
2020/12/05 17:26:12;;;;;;;13.27;4.35;;;20.70;98.70;;;;;;6332813;22;20021;-80
2020/12/05 17:29:05;;;;;;;13.25;4.00;;;21.50;99.90;;;;;;6282725;22;20019;-82
2020/12/05 17:32:36;;;;;;;19.95;5.30;;;22.00;99.90;;;;;;6306138;22;20013;-83
2020/12/05 17:35:27;;;;;;;15.05;4.25;;;22.40;99.90;;;;;;6298801;22;20074;-82
2020/12/05 17:38:31;;;;;;;20.90;4.18;;;22.70;99.90;;;;;;6290429;22;20003;-81
2020/12/05 17:41:24;;;;;;;20.70;3.85;;;23.10;99.90;;;;;;6311630;22;20324;-82
2020/12/05 17:44:09;;;;;;;16.75;3.83;;;23.30;99.90;;;;;;6313741;22;20023;-80
2020/12/05 17:46:46;;;;;;;13.55;3.47;;;23.40;99.90;;;;;;6287611;22;20041;-83
2020/12/05 17:49:38;;;;;;;16.80;3.80;;;23.40;99.90;;;;;;6327024;22;20019;-82
2020/12/05 17:52:44;;;;;;;15.68;3.45;;;23.40;99.90;;;;;;6260906;22;20250;-82
2020/12/05 18:15:00;;;;;;;19.08;6.38;;;23.00;97.40;;;;;;6212791;23;20018;-82
2020/12/05 18:19:06;;;;;;;;;;;;;;;;;;;;;
2020/12/05 18:23:11;;;;;;;21.63;7.88;;;22.90;97.00;;;;;;6231143;23;20024;-82
2020/12/05 18:26:01;;;;;;;21.50;8.32;;;22.80;96.80;;;;;;6226305;23;20031;-83
2020/12/05 18:29:29;;;;;;;20.58;8.10;;;22.70;96.70;;;;;;6192475;23;20035;-83
2020/12/05 18:33:18;;;;;;;22.48;9.18;;;22.70;96.90;;;;;;6174739;23;20015;-84
2020/12/05 18:36:15;;;;;;;24.30;8.98;;;22.50;97.00;;;;;;6093236;23;20017;-82
2020/12/05 18:39:50;;;;;;;;;;;;;;;;;;;;;
2020/12/05 18:43:59;;;;;;;26.48;11.65;;;22.40;97.10;;;;;;6136965;23;20369;-83
2020/12/05 18:47:38;;;;;;;25.63;12.63;;;22.40;97.10;;;;;;6147281;23;20028;-85
2020/12/05 18:50:06;;;;;;;28.88;15.85;;;22.30;97.00;;;;;;6064053;23;19994;-85
2020/12/05 18:54:02;;;;;;;28.17;15.57;;;22.40;96.90;;;;;;6137502;23;20082;-83
2020/12/05 18:57:59;;;;;;;37.97;20.92;;;22.40;96.90;;;;;;5977801;24;20012;-82
2020/12/05 19:06:00;;;;;;;;;;;;;;;;;;;;;
2020/12/05 19:10:18;;;;;;;;;;;;;;;;;;;;;
2020/12/05 19:13:54;;;;;;;66.10;47.53;;;22.00;98.30;;;;;;6050606;23;20016;-82
2020/12/05 19:21:01;;;;;;;71.95;51.70;;;21.90;98.60;;;;;;6316802;22;20019;-84
2020/12/05 19:23:28;;;;;;;72.00;52.88;;;21.80;98.60;;;;;;6289264;22;20331;-84
2020/12/05 19:25:55;;;;;;;67.47;52.00;;;21.80;98.60;;;;;;6317973;22;20019;-84
2020/12/05 19:28:23;;;;;;;68.50;53.67;;;21.80;98.60;;;;;;6290178;22;20011;-84
2020/12/05 19:30:50;;;;;;;67.65;50.67;;;21.80;98.60;;;;;;6328665;22;20011;-83
2020/12/05 19:33:21;;;;;;;68.00;50.28;;;21.80;98.60;;;;;;6304580;22;20015;-84
2020/12/05 19:35:50;;;;;;;66.32;51.42;;;21.80;98.50;;;;;;6330991;22;20011;-87
2020/12/05 19:38:18;;;;;;;65.07;49.75;;;21.90;98.30;;;;;;6322222;22;20007;-84
2020/12/05 19:40:53;;;;;;;69.53;50.15;;;21.90;98.10;;;;;;6315791;22;20026;-87
2020/12/05 19:43:21;;;;;;;70.60;49.92;;;21.90;97.90;;;;;;6328636;22;20011;-81
2020/12/05 19:45:56;;;;;;;;;;;21.90;97.90;;;;;;6314291;22;20019;-85
2020/12/05 19:48:23;;;;;;;66.15;47.65;;;21.90;97.90;;;;;;6317768;22;19925;-84
2020/12/05 19:51:19;;;;;;;60.92;47.42;;;21.80;98.10;;;;;;6318848;22;20011;-86
2020/12/05 19:53:55;;;;;;;62.30;48.80;;;21.80;98.20;;;;;;6333190;22;20021;-85
2020/12/05 19:56:37;;;;;;;60.55;45.70;;;21.80;98.20;;;;;;6336435;22;20458;-87
2020/12/05 19:59:08;;;;;;;63.38;46.80;;;21.70;98.20;;;;;;6318424;22;20023;-82
2020/12/05 20:01:38;;;;;;;60.60;47.00;;;21.70;98.20;;;;;;6321641;22;20033;-85
2020/12/05 20:04:06;;;;;;;60.05;45.58;;;21.70;98.20;;;;;;6321045;22;20019;-82
2020/12/05 20:06:36;;;;;;;60.55;44.95;;;21.70;98.20;;;;;;6321155;22;20011;-83
2020/12/05 20:09:04;;;;;;;60.25;45.78;;;21.70;98.10;;;;;;6318973;22;20018;-83
2020/12/05 20:11:57;;;;;;;59.78;45.65;;;21.70;98.10;;;;;;6317601;22;20020;-84
2020/12/05 20:14:25;;;;;;;55.08;43.63;;;21.70;98.10;;;;;;6324165;22;20012;-83
2020/12/05 20:16:56;;;;;;;58.33;44.50;;;21.70;98.00;;;;;;6322146;22;20026;-79
2020/12/05 20:19:23;;;;;;;57.60;43.47;;;21.70;97.80;;;;;;6319879;22;20019;-82
2020/12/05 20:21:50;;;;;;;55.58;43.42;;;21.80;97.70;;;;;;6318304;22;20430;-80
2020/12/05 20:24:20;;;;;;;59.22;44.15;;;21.80;97.60;;;;;;6319949;22;20015;-79
2020/12/05 20:26:50;;;;;;;57.75;42.38;;;21.80;97.40;;;;;;6328187;22;20439;-82
2020/12/05 20:29:17;;;;;;;54.42;39.20;;;21.80;97.30;;;;;;6322916;22;19995;-81
2020/12/05 20:31:47;;;;;;;55.50;41.67;;;21.80;97.20;;;;;;6320672;22;20017;-80
2020/12/05 20:34:14;;;;;;;56.88;42.30;;;21.80;97.10;;;;;;6320003;22;20007;-79
2020/12/05 20:36:41;;;;;;;58.97;42.67;;;21.80;97.20;;;;;;6320017;22;20025;-82
2020/12/05 20:39:09;;;;;;;56.42;41.83;;;21.70;97.30;;;;;;6318050;22;20015;-83
2020/12/05 20:41:36;;;;;;;52.70;39.22;;;21.60;97.40;;;;;;6316040;22;20015;-79
2020/12/05 20:44:03;;;;;;;56.37;39.97;;;21.50;97.70;;;;;;6318984;22;20015;-81
2020/12/05 20:46:31;;;;;;;51.95;39.83;;;21.50;97.60;;;;;;6292907;22;20019;-82
2020/12/05 20:48:57;;;;;;;50.87;37.47;;;21.40;97.70;;;;;;6320396;22;20011;-81
2020/12/05 20:51:25;;;;;;;49.38;37.40;;;21.40;97.70;;;;;;6320498;22;20250;-82
2020/12/05 20:54:00;;;;;;;50.28;38.53;;;21.40;97.70;;;;;;6321593;22;20066;-81
2020/12/05 20:56:30;;;;;;;51.85;40.05;;;21.30;97.80;;;;;;6332464;22;20015;-80
2020/12/05 20:59:01;;;;;;;50.15;38.20;;;21.30;97.70;;;;;;6295547;22;20023;-84
2020/12/05 21:01:28;;;;;;;51.38;37.75;;;21.30;97.70;;;;;;6319278;22;20025;-84
2020/12/05 21:03:55;;;;;;;47.95;37.03;;;21.30;97.70;;;;;;6321295;22;20025;-80
2020/12/05 21:06:30;;;;;;;51.65;37.78;;;21.20;97.70;;;;;;6340906;22;20018;-81
2020/12/05 21:08:58;;;;;;;49.53;37.85;;;21.20;97.70;;;;;;6336945;22;20018;-79
2020/12/05 21:11:35;;;;;;;51.03;37.78;;;21.20;97.60;;;;;;6321764;22;20037;-82
2020/12/05 21:14:04;;;;;;;47.90;35.45;;;21.30;97.50;;;;;;6335280;22;20007;-83
2020/12/05 21:16:50;;;;;;;;;;;21.20;97.40;;;;;;6325822;22;19995;-82
2020/12/05 21:19:17;;;;;;;49.10;35.47;;;21.20;97.40;;;;;;6328311;22;19906;-85
2020/12/05 21:21:44;;;;;;;49.60;36.65;;;21.10;97.50;;;;;;6323109;22;20022;-84
2020/12/05 21:24:12;;;;;;;46.50;34.65;;;21.10;97.50;;;;;;6317162;22;20468;-81
2020/12/05 21:26:39;;;;;;;47.90;35.53;;;21.10;97.60;;;;;;6321678;22;20014;-84
2020/12/05 21:29:07;;;;;;;46.50;34.28;;;21.00;97.60;;;;;;6317003;22;20018;-82
2020/12/05 21:31:36;;;;;;;45.55;35.03;;;21.00;97.60;;;;;;6293042;22;20019;-82
2020/12/05 21:34:03;;;;;;;46.13;34.67;;;21.00;97.70;;;;;;6315247;22;20016;-83
2020/12/05 21:36:33;;;;;;;49.80;37.22;;;20.90;97.80;;;;;;6321595;22;20016;-80
2020/12/05 21:39:01;;;;;;;46.03;34.58;;;20.90;97.90;;;;;;6314584;22;20631;-80
2020/12/05 21:41:28;;;;;;;45.40;34.22;;;20.80;97.90;;;;;;6310270;22;20019;-82
2020/12/05 21:43:58;;;;;;;44.58;33.03;;;20.80;98.00;;;;;;6309306;22;20023;-79
2020/12/05 21:46:24;;;;;;;47.00;34.92;;;20.80;98.10;;;;;;6308114;22;20019;-81
2020/12/05 21:48:52;;;;;;;44.97;33.87;;;20.70;98.20;;;;;;6319082;22;20011;-84
2020/12/05 21:51:21;;;;;;;44.45;31.52;;;20.70;98.30;;;;;;6325270;22;20002;-82
2020/12/05 21:53:52;;;;;;;43.60;31.80;;;20.70;98.30;;;;;;6299570;22;20012;-82
2020/12/05 21:56:29;;;;;;;44.67;33.95;;;20.70;98.50;;;;;;6293977;22;20374;-79
2020/12/05 21:59:00;;;;;;;42.63;31.40;;;20.70;99.10;;;;;;6335281;22;20015;-83
2020/12/05 22:01:28;;;;;;;44.47;34.15;;;20.70;99.30;;;;;;6329031;22;20011;-81
2020/12/05 22:03:54;;;;;;;45.42;33.72;;;20.70;99.30;;;;;;6328101;22;20023;-80
2020/12/05 22:06:22;;;;;;;43.15;30.45;;;20.70;98.90;;;;;;6325601;22;20016;-82
2020/12/05 22:08:49;;;;;;;42.28;31.63;;;20.70;98.70;;;;;;6323255;22;20015;-79
2020/12/05 22:11:21;;;;;;;44.20;32.63;;;20.70;99.10;;;;;;6311963;22;20488;-79
2020/12/05 22:13:49;;;;;;;47.90;31.63;;;20.80;99.90;;;;;;6308606;22;20242;-80